Time;durP1;ratioP1;P1;durP2;ratioP2;P2;SDS_P1;SDS_P2;PMS_P1;PMS_P2;Temp;Humidity;BMP_temperature;BMP_pressure;BME280_temperature;BME280_humidity;BME280_pressure;Samples;Min_cycle;Max_cycle;Signal;HPM_P1;HPM_P2
2022/11/09 00:01:23;;;;;;;3.45;2.12;;;15.40;64.60;;;;;;2358320;57;21107;-60
2022/11/09 00:03:55;;;;;;;4.03;2.35;;;15.30;64.60;;;;;;2358503;57;21024;-61
2022/11/09 00:06:23;;;;;;;2.95;2.00;;;15.30;64.60;;;;;;2358495;57;21103;-60
2022/11/09 00:08:50;;;;;;;4.03;2.15;;;15.30;64.80;;;;;;2357873;57;21123;-60
2022/11/09 00:11:18;;;;;;;4.45;2.10;;;15.30;65.00;;;;;;2358445;57;21563;-61
2022/11/09 00:13:46;;;;;;;2.97;1.92;;;15.30;65.00;;;;;;2358692;57;21608;-61
2022/11/09 00:16:16;;;;;;;5.75;2.60;;;15.30;65.10;;;;;;2358354;57;21510;-60
2022/11/09 00:18:46;;;;;;;3.25;2.08;;;15.30;65.10;;;;;;2358705;57;21028;-60
2022/11/09 00:21:15;;;;;;;2.83;1.75;;;15.30;65.10;;;;;;2358351;57;21012;-60
2022/11/09 00:23:43;;;;;;;4.55;2.00;;;15.30;65.10;;;;;;2358547;57;21075;-62
2022/11/09 00:26:12;;;;;;;5.93;1.83;;;15.30;65.10;;;;;;2358195;57;21586;-61
2022/11/09 00:28:40;;;;;;;2.75;1.90;;;15.40;65.10;;;;;;2358363;57;21601;-61
2022/11/09 00:31:12;;;;;;;5.20;2.60;;;15.40;65.20;;;;;;2358662;57;21036;-62
2022/11/09 00:33:40;;;;;;;3.87;2.28;;;15.40;65.10;;;;;;2358353;57;21023;-60
2022/11/09 00:36:11;;;;;;;3.92;1.92;;;15.40;65.10;;;;;;2358619;57;21036;-62
2022/11/09 00:38:39;;;;;;;4.53;1.90;;;15.40;65.20;;;;;;2358752;57;21569;-60
2022/11/09 00:41:08;;;;;;;4.40;1.85;;;15.40;65.10;;;;;;2358204;57;21083;-58
2022/11/09 00:43:36;;;;;;;4.93;2.03;;;15.40;65.20;;;;;;2358515;57;21106;-61
2022/11/09 00:46:04;;;;;;;5.93;2.83;;;15.40;65.20;;;;;;2358225;57;21032;-60
2022/11/09 00:48:31;;;;;;;3.58;2.17;;;15.40;65.20;;;;;;2358422;57;21071;-62
2022/11/09 00:50:58;;;;;;;3.35;1.90;;;15.40;65.20;;;;;;2358542;57;21537;-62
2022/11/09 00:53:26;;;;;;;3.00;2.03;;;15.40;65.20;;;;;;2358116;57;21659;-60
2022/11/09 00:55:55;;;;;;;4.30;1.80;;;15.30;65.20;;;;;;2358603;57;21028;-61
2022/11/09 00:58:22;;;;;;;4.68;2.17;;;15.40;65.40;;;;;;2358216;57;21503;-62
2022/11/09 01:00:50;;;;;;;3.12;1.92;;;15.30;65.40;;;;;;2358375;57;21612;-62
2022/11/09 01:03:18;;;;;;;2.75;1.80;;;15.40;65.50;;;;;;2358312;57;21565;-60
2022/11/09 01:05:45;;;;;;;3.92;2.08;;;15.30;65.40;;;;;;2358608;57;21619;-62
2022/11/09 01:08:13;;;;;;;3.33;2.05;;;15.30;65.40;;;;;;2358418;57;21531;-62
2022/11/09 01:10:42;;;;;;;6.78;2.17;;;15.30;65.50;;;;;;2358500;57;21479;-62
2022/11/09 01:13:10;;;;;;;6.82;2.83;;;15.30;65.50;;;;;;2358487;57;21389;-61
2022/11/09 01:15:41;;;;;;;2.50;1.92;;;15.30;65.60;;;;;;2358405;57;21594;-60
2022/11/09 01:18:09;;;;;;;3.05;1.83;;;15.30;65.70;;;;;;2358248;57;21024;-62
2022/11/09 01:20:40;;;;;;;4.93;2.12;;;15.30;65.70;;;;;;2358536;57;21036;-61
2022/11/09 01:23:07;;;;;;;4.47;2.30;;;15.30;65.80;;;;;;2358068;57;21076;-61
2022/11/09 01:25:35;;;;;;;4.22;2.05;;;15.20;65.80;;;;;;2358610;57;21036;-59
2022/11/09 01:28:03;;;;;;;4.45;2.35;;;15.20;65.90;;;;;;2358294;57;21534;-60
2022/11/09 01:30:34;;;;;;;5.25;2.25;;;15.20;66.00;;;;;;2358570;57;21563;-62
2022/11/09 01:33:03;;;;;;;5.50;2.25;;;15.20;66.00;;;;;;2358191;57;21560;-61
2022/11/09 01:35:33;;;;;;;3.15;2.03;;;15.20;66.10;;;;;;2358208;57;21032;-61
2022/11/09 01:38:00;;;;;;;3.33;1.98;;;15.20;66.10;;;;;;2358404;57;21551;-60
2022/11/09 01:40:28;;;;;;;3.78;2.15;;;15.20;66.10;;;;;;2358114;57;21594;-62
2022/11/09 01:42:55;;;;;;;4.10;2.12;;;15.20;66.10;;;;;;2358524;57;21532;-63
2022/11/09 01:45:26;;;;;;;3.62;2.10;;;15.20;66.10;;;;;;2358475;57;21119;-60
2022/11/09 01:48:02;;;;;;;3.15;1.70;;;15.20;66.20;;;;;;2358467;57;21602;-60
2022/11/09 01:50:39;;;;;;;2.58;2.03;;;15.20;66.30;;;;;;2358321;57;21020;-61
2022/11/09 01:53:15;;;;;;;4.50;2.12;;;15.10;66.20;;;;;;2358041;57;21175;-61
2022/11/09 01:55:42;;;;;;;4.93;2.08;;;15.20;66.40;;;;;;2358459;57;21601;-62
2022/11/09 01:58:14;;;;;;;3.90;2.00;;;15.10;66.40;;;;;;2358595;57;21621;-58
2022/11/09 02:00:46;;;;;;;4.20;2.05;;;15.10;66.50;;;;;;2358217;57;21501;-58
2022/11/09 02:03:35;;;;;;;3.87;1.73;;;15.10;66.60;;;;;;2358911;57;21480;-59
2022/11/09 02:06:07;;;;;;;3.92;2.00;;;15.10;66.70;;;;;;2255060;59;21604;-56
2022/11/09 02:08:34;;;;;;;3.42;1.98;;;15.10;66.80;;;;;;2261649;59;21074;-55
2022/11/09 02:11:07;;;;;;;7.03;2.28;;;15.00;66.90;;;;;;2261888;59;21621;-56
2022/11/09 02:13:35;;;;;;;3.70;1.80;;;15.10;67.10;;;;;;2262144;59;21106;-58
2022/11/09 02:16:03;;;;;;;3.10;2.10;;;15.10;67.50;;;;;;2402252;55;21633;-55
2022/11/09 02:18:31;;;;;;;3.55;2.08;;;15.10;67.20;;;;;;2261844;59;21798;-55
2022/11/09 02:20:59;;;;;;;3.60;2.20;;;15.00;67.20;;;;;;2261843;59;21071;-58
2022/11/09 02:23:28;;;;;;;5.62;2.17;;;15.10;67.40;;;;;;2262047;59;21537;-54
2022/11/09 02:25:58;;;;;;;6.82;1.95;;;15.10;67.40;;;;;;2358328;55;21042;-55
2022/11/09 02:28:26;;;;;;;4.18;1.85;;;15.00;67.50;;;;;;2262204;59;21541;-58
2022/11/09 02:30:56;;;;;;;4.53;2.50;;;15.00;67.60;;;;;;2261569;59;21070;-57
2022/11/09 02:33:23;;;;;;;4.03;2.03;;;15.00;67.60;;;;;;2262086;59;21561;-56
2022/11/09 02:35:50;;;;;;;3.12;1.98;;;15.10;67.70;;;;;;2261321;59;21220;-57
2022/11/09 02:38:18;;;;;;;3.65;1.73;;;15.10;67.80;;;;;;2261922;59;21605;-55
2022/11/09 02:40:49;;;;;;;2.40;1.73;;;15.10;67.90;;;;;;2261666;59;21605;-54
2022/11/09 02:43:17;;;;;;;3.72;2.03;;;15.10;67.80;;;;;;2261653;59;21098;-55
2022/11/09 02:45:44;;;;;;;3.78;1.80;;;15.10;67.80;;;;;;2261569;59;21557;-55
2022/11/09 02:48:11;;;;;;;4.70;2.10;;;15.10;67.90;;;;;;2268415;55;21557;-55
2022/11/09 02:50:38;;;;;;;3.03;1.73;;;15.20;68.00;;;;;;2260649;59;21137;-51
2022/11/09 02:53:06;;;;;;;2.83;1.90;;;15.20;67.80;;;;;;2420798;55;21541;-53
2022/11/09 02:55:33;;;;;;;3.75;2.20;;;15.20;67.80;;;;;;2261327;59;21537;-57
2022/11/09 02:58:01;;;;;;;3.08;1.90;;;15.20;67.90;;;;;;2262053;59;21565;-58
2022/11/09 03:00:28;;;;;;;4.05;2.30;;;15.20;67.80;;;;;;2261695;59;21632;-57
2022/11/09 03:02:56;;;;;;;3.03;2.00;;;15.20;67.80;;;;;;2261612;59;21533;-58
2022/11/09 03:05:23;;;;;;;2.87;1.75;;;15.30;67.80;;;;;;2261690;59;21082;-56
2022/11/09 03:10:26;;;;;;;5.37;2.03;;;15.30;67.70;;;;;;2356414;57;22536;-55
2022/11/09 03:12:54;;;;;;;3.62;2.00;;;15.30;67.70;;;;;;2348200;57;21049;-55
2022/11/09 03:15:21;;;;;;;3.65;1.92;;;15.30;67.70;;;;;;2375057;52;21051;-58
2022/11/09 03:17:48;;;;;;;2.10;1.75;;;15.30;67.70;;;;;;2375587;56;21574;-56
2022/11/09 03:20:16;;;;;;;3.87;1.98;;;15.30;67.60;;;;;;2375587;56;21592;-55
2022/11/09 03:22:43;;;;;;;2.85;1.98;;;15.30;67.50;;;;;;2375586;56;21589;-55
2022/11/09 03:25:10;;;;;;;4.72;2.00;;;15.30;68.20;;;;;;2375345;56;21038;-57
2022/11/09 03:27:38;;;;;;;3.50;2.40;;;15.30;67.40;;;;;;2375393;56;21058;-58
2022/11/09 03:30:08;;;;;;;4.65;2.35;;;15.40;67.70;;;;;;2375780;56;21505;-57
2022/11/09 03:32:35;;;;;;;3.08;2.03;;;15.40;67.40;;;;;;2375349;56;21074;-56
2022/11/09 03:35:02;;;;;;;4.28;1.67;;;15.40;67.40;;;;;;2375286;56;21062;-56
2022/11/09 03:37:29;;;;;;;4.90;1.87;;;15.40;67.40;;;;;;2375738;56;21396;-57
2022/11/09 03:39:56;;;;;;;3.35;2.03;;;15.40;67.40;;;;;;2375737;56;21526;-58
2022/11/09 03:42:23;;;;;;;5.60;1.77;;;15.40;67.30;;;;;;2375514;56;21561;-59
2022/11/09 03:44:51;;;;;;;3.90;1.92;;;15.40;67.20;;;;;;2375488;56;21102;-53
2022/11/09 03:47:18;;;;;;;3.50;2.20;;;15.40;67.30;;;;;;2375771;56;21570;-52
2022/11/09 03:49:45;;;;;;;4.93;2.00;;;15.40;67.20;;;;;;2375550;56;21138;-53
2022/11/09 03:52:12;;;;;;;4.85;2.10;;;15.40;67.10;;;;;;2375169;56;21047;-55
2022/11/09 03:54:39;;;;;;;4.30;1.80;;;15.40;67.20;;;;;;2375627;56;21094;-57
2022/11/09 03:57:06;;;;;;;5.00;2.40;;;15.40;67.20;;;;;;2521734;52;21055;-55
2022/11/09 03:59:35;;;;;;;4.20;1.85;;;15.40;67.40;;;;;;2375401;56;21521;-56
2022/11/09 04:02:02;;;;;;;3.08;1.80;;;15.40;67.40;;;;;;2375500;56;21521;-57
2022/11/09 04:04:29;;;;;;;2.53;1.92;;;15.40;68.10;;;;;;2375676;56;21035;-57
2022/11/09 04:06:56;;;;;;;4.87;1.83;;;15.40;67.40;;;;;;2375886;56;21135;-57
2022/11/09 04:09:23;;;;;;;2.92;1.92;;;15.40;67.40;;;;;;2375709;56;21051;-58
2022/11/09 04:11:50;;;;;;;6.30;2.37;;;15.40;67.40;;;;;;2374899;56;21053;-56
2022/11/09 04:14:18;;;;;;;3.50;1.90;;;15.40;67.40;;;;;;2375729;56;21095;-58
2022/11/09 04:16:45;;;;;;;2.70;1.77;;;15.40;67.50;;;;;;2375483;56;21118;-55
2022/11/09 04:19:12;;;;;;;3.80;2.17;;;15.40;67.60;;;;;;2376054;56;21031;-54
2022/11/09 04:21:40;;;;;;;5.28;1.80;;;15.30;67.60;;;;;;2374713;56;21081;-56
2022/11/09 04:24:07;;;;;;;3.55;2.00;;;15.40;67.70;;;;;;2374922;56;21051;-55
2022/11/09 04:26:34;;;;;;;4.40;2.03;;;15.40;67.70;;;;;;2374032;56;21122;-55
2022/11/09 04:29:02;;;;;;;2.35;1.80;;;15.30;67.70;;;;;;2374849;56;21060;-54
2022/11/09 04:31:29;;;;;;;3.53;1.85;;;15.40;67.80;;;;;;2374520;56;21592;-56
2022/11/09 04:33:56;;;;;;;3.62;2.35;;;15.30;67.70;;;;;;2374731;56;21098;-52
2022/11/09 04:36:24;;;;;;;3.72;1.70;;;15.30;67.70;;;;;;2374610;56;21612;-55
2022/11/09 04:38:51;;;;;;;2.62;1.95;;;15.40;67.90;;;;;;2373534;56;21043;-58
2022/11/09 04:41:18;;;;;;;2.60;1.73;;;15.30;67.70;;;;;;2374946;56;21057;-58
2022/11/09 04:43:45;;;;;;;3.92;2.40;;;15.30;67.90;;;;;;2374728;56;21118;-54
2022/11/09 04:46:12;;;;;;;4.00;1.98;;;15.30;67.90;;;;;;2375005;56;21047;-55
2022/11/09 04:48:39;;;;;;;5.10;2.20;;;15.30;67.90;;;;;;2374824;56;21050;-58
2022/11/09 04:51:09;;;;;;;3.28;1.98;;;15.30;67.90;;;;;;2374470;56;21121;-55
2022/11/09 04:53:37;;;;;;;3.00;2.10;;;15.30;67.90;;;;;;2374484;56;21545;-57
2022/11/09 04:56:06;;;;;;;5.68;2.08;;;15.30;67.90;;;;;;2374599;56;21794;-55
2022/11/09 04:58:34;;;;;;;3.05;1.90;;;15.30;67.90;;;;;;2374880;56;21106;-55
2022/11/09 05:01:03;;;;;;;4.82;2.10;;;15.30;67.90;;;;;;2374761;56;21538;-57
2022/11/09 05:03:30;;;;;;;4.75;2.30;;;15.30;67.80;;;;;;2374422;56;21509;-58
2022/11/09 05:05:57;;;;;;;3.75;2.12;;;15.30;67.70;;;;;;2374627;56;21121;-59
2022/11/09 05:08:25;;;;;;;2.70;1.65;;;15.30;67.80;;;;;;2374587;56;21107;-53
2022/11/09 05:10:56;;;;;;;3.60;2.28;;;15.30;67.90;;;;;;2374335;56;21610;-55
2022/11/09 05:13:23;;;;;;;3.33;1.90;;;15.30;68.00;;;;;;2374633;56;21616;-52
2022/11/09 05:15:51;;;;;;;2.42;1.92;;;15.30;68.10;;;;;;2374298;56;21757;-52
2022/11/09 05:18:18;;;;;;;4.30;2.08;;;15.30;68.10;;;;;;2373105;56;21063;-60
2022/11/09 05:20:45;;;;;;;3.33;1.80;;;15.20;68.20;;;;;;2373784;56;21079;-55
2022/11/09 05:25:58;;;;;;;3.40;1.98;;;15.20;68.40;;;;;;2374489;52;21011;-57
2022/11/09 05:28:25;;;;;;;3.67;1.83;;;15.20;68.40;;;;;;2374479;56;21593;-56
2022/11/09 05:30:52;;;;;;;4.00;2.10;;;15.20;68.50;;;;;;2374610;56;21043;-53
2022/11/09 05:33:20;;;;;;;3.28;1.90;;;15.20;68.60;;;;;;2374550;56;21043;-53
2022/11/09 05:35:47;;;;;;;4.53;1.90;;;15.20;68.70;;;;;;2374764;56;22095;-57
2022/11/09 05:38:14;;;;;;;5.87;2.00;;;15.20;68.70;;;;;;2374513;56;21047;-52
2022/11/09 05:40:41;;;;;;;4.25;1.90;;;15.20;68.80;;;;;;2375022;56;21718;-57
2022/11/09 05:43:08;;;;;;;4.70;2.00;;;15.20;69.00;;;;;;2374845;56;21526;-55
2022/11/09 05:45:35;;;;;;;7.00;2.17;;;15.20;69.10;;;;;;2374044;56;21683;-53
2022/11/09 05:48:04;;;;;;;2.92;2.03;;;15.20;69.10;;;;;;2375054;56;21035;-56
2022/11/09 05:50:32;;;;;;;3.12;2.25;;;15.20;69.10;;;;;;2374833;56;22259;-54
2022/11/09 05:53:00;;;;;;;3.60;2.08;;;15.20;69.10;;;;;;2374782;56;21114;-57
2022/11/09 05:55:27;;;;;;;2.90;1.80;;;15.20;69.10;;;;;;2375179;56;21609;-55
2022/11/09 05:57:55;;;;;;;3.53;2.03;;;15.30;69.30;;;;;;2374252;56;21039;-57
2022/11/09 06:00:22;;;;;;;5.45;2.12;;;15.30;69.30;;;;;;2373811;56;21050;-56
2022/11/09 06:02:49;;;;;;;3.80;1.77;;;15.30;69.10;;;;;;2374435;56;21043;-51
2022/11/09 06:05:18;;;;;;;4.05;1.70;;;15.30;69.10;;;;;;2374860;56;21648;-54
2022/11/09 06:07:46;;;;;;;2.75;1.50;;;15.40;69.00;;;;;;2375063;56;21505;-55
2022/11/09 06:10:13;;;;;;;2.80;1.70;;;15.30;68.90;;;;;;2374826;56;21051;-58
2022/11/09 06:12:40;;;;;;;4.37;1.70;;;15.30;68.90;;;;;;2374943;56;21525;-53
2022/11/09 06:15:09;;;;;;;2.15;1.55;;;15.40;68.90;;;;;;2374628;56;21051;-59
2022/11/09 06:17:36;;;;;;;4.60;1.95;;;15.30;68.70;;;;;;2373529;56;21118;-57
2022/11/09 06:20:05;;;;;;;2.65;1.62;;;15.30;68.60;;;;;;2375008;56;21204;-58
2022/11/09 06:22:32;;;;;;;3.72;2.10;;;15.30;68.60;;;;;;2374585;56;21059;-61
2022/11/09 06:24:59;;;;;;;5.57;2.20;;;15.30;68.60;;;;;;2374749;56;21031;-61
2022/11/09 06:27:26;;;;;;;4.35;1.52;;;15.30;68.60;;;;;;2374756;56;21059;-57
2022/11/09 06:29:54;;;;;;;5.28;2.35;;;15.30;68.60;;;;;;2374700;56;21126;-55
2022/11/09 06:32:21;;;;;;;2.22;1.50;;;15.30;68.60;;;;;;2374649;56;21545;-52
2022/11/09 06:34:48;;;;;;;2.80;1.75;;;15.30;68.60;;;;;;2374432;56;21091;-59
2022/11/09 06:37:16;;;;;;;2.45;1.70;;;15.30;68.70;;;;;;2375069;56;21549;-57
2022/11/09 06:39:44;;;;;;;4.18;1.73;;;15.30;68.60;;;;;;2374944;56;21560;-56
2022/11/09 06:42:11;;;;;;;5.47;1.90;;;15.30;68.70;;;;;;2605479;52;21621;-56
2022/11/09 06:44:38;;;;;;;3.80;1.90;;;15.30;68.60;;;;;;2374904;56;21157;-55
2022/11/09 06:47:05;;;;;;;5.45;1.70;;;15.30;68.60;;;;;;2374678;56;21129;-59
2022/11/09 06:49:32;;;;;;;3.62;1.75;;;15.30;68.60;;;;;;2374992;56;21043;-50
2022/11/09 06:52:00;;;;;;;2.72;1.80;;;15.30;68.80;;;;;;2374378;56;21039;-54
2022/11/09 06:54:27;;;;;;;3.03;1.87;;;15.30;68.80;;;;;;2374772;56;21566;-54
2022/11/09 06:56:55;;;;;;;2.28;1.77;;;15.30;68.80;;;;;;2374888;56;21538;-57
2022/11/09 06:59:22;;;;;;;2.37;1.77;;;15.30;68.80;;;;;;2374180;56;21106;-55
2022/11/09 07:01:49;;;;;;;5.95;1.75;;;15.30;68.70;;;;;;2374804;56;21122;-51
2022/11/09 07:04:16;;;;;;;5.80;2.17;;;15.40;68.70;;;;;;2375215;56;21055;-53
2022/11/09 07:06:43;;;;;;;4.75;1.60;;;15.30;68.40;;;;;;2374832;56;21027;-54
2022/11/09 07:09:12;;;;;;;2.22;1.65;;;15.40;68.50;;;;;;2374889;56;21612;-57
2022/11/09 07:11:39;;;;;;;1.80;1.52;;;15.40;68.40;;;;;;2374583;56;21055;-55
2022/11/09 07:14:06;;;;;;;4.28;1.75;;;15.40;68.60;;;;;;2374592;56;21601;-53
2022/11/09 07:16:33;;;;;;;2.80;1.70;;;15.40;68.50;;;;;;2374440;56;21137;-56
2022/11/09 07:19:01;;;;;;;3.67;2.00;;;15.40;68.60;;;;;;2374657;56;21521;-55
2022/11/09 07:21:28;;;;;;;4.57;1.98;;;15.30;68.50;;;;;;2374305;56;21118;-54
2022/11/09 07:23:55;;;;;;;5.12;2.03;;;15.30;68.60;;;;;;2374281;56;21518;-55
2022/11/09 07:26:22;;;;;;;2.78;1.58;;;15.40;69.40;;;;;;2374764;56;21102;-55
2022/11/09 07:28:49;;;;;;;2.62;1.80;;;15.30;68.40;;;;;;2374724;56;21047;-53
2022/11/09 07:31:16;;;;;;;3.97;1.50;;;15.30;68.50;;;;;;2374646;56;21514;-54
2022/11/09 07:33:44;;;;;;;3.40;1.95;;;15.30;68.70;;;;;;2374736;56;21567;-49
2022/11/09 07:36:11;;;;;;;3.12;1.65;;;15.30;68.70;;;;;;2374698;56;21538;-51
2022/11/09 07:38:38;;;;;;;4.18;1.80;;;15.30;68.70;;;;;;2374330;56;21042;-52
2022/11/09 07:41:05;;;;;;;4.03;1.87;;;15.30;68.80;;;;;;2374576;56;21055;-53
2022/11/09 07:43:33;;;;;;;5.05;1.70;;;15.30;68.80;;;;;;2374904;56;21070;-51
2022/11/09 07:46:03;;;;;;;2.92;2.00;;;15.30;68.80;;;;;;2374820;56;21067;-53
2022/11/09 07:48:31;;;;;;;2.87;1.65;;;15.20;68.80;;;;;;2374797;56;21675;-55
2022/11/09 07:51:00;;;;;;;4.37;2.60;;;15.30;68.90;;;;;;2374694;56;21070;-54
2022/11/09 07:56:04;;;;;;;3.30;2.00;;;15.30;69.00;;;;;;2317645;57;27821;-53
2022/11/09 07:58:33;;;;;;;2.42;1.70;;;15.10;70.40;;;;;;2348400;57;21049;-55
2022/11/09 08:01:00;;;;;;;3.87;2.00;;;15.20;69.80;;;;;;2348458;57;21575;-56
2022/11/09 08:06:14;;;;;;;4.93;1.90;;;15.30;69.30;;;;;;2293166;58;21115;-77
2022/11/09 08:08:41;;;;;;;2.55;1.80;;;15.30;69.10;;;;;;2295891;58;21099;-77
2022/11/09 08:11:08;;;;;;;2.42;1.70;;;15.30;69.10;;;;;;2294818;58;21139;-77
2022/11/09 08:13:36;;;;;;;6.62;1.77;;;15.30;69.00;;;;;;2295729;58;21591;-77
2022/11/09 08:16:04;;;;;;;4.22;1.60;;;15.30;69.10;;;;;;2322341;58;21049;-77
2022/11/09 08:18:31;;;;;;;2.80;1.80;;;15.40;69.20;;;;;;2322160;58;21645;-78
2022/11/09 08:21:02;;;;;;;6.47;2.10;;;15.40;69.00;;;;;;2322137;58;21037;-78
2022/11/09 08:23:29;;;;;;;2.42;1.70;;;15.40;69.40;;;;;;2322059;58;21716;-78
2022/11/09 08:28:33;;;;;;;4.55;1.87;;;15.40;69.40;;;;;;2329521;57;22102;-62
2022/11/09 08:31:03;;;;;;;4.43;1.83;;;15.50;69.40;;;;;;2348527;57;21069;-61
2022/11/09 08:33:34;;;;;;;2.20;1.67;;;15.50;69.10;;;;;;2348576;57;21041;-58
2022/11/09 08:36:07;;;;;;;2.78;1.73;;;15.50;69.30;;;;;;2347807;57;21089;-61
2022/11/09 08:38:34;;;;;;;4.57;1.75;;;15.50;69.20;;;;;;2348057;57;21519;-61
2022/11/09 08:41:01;;;;;;;5.65;1.67;;;15.60;69.10;;;;;;2347479;57;21061;-60
2022/11/09 08:43:28;;;;;;;3.37;1.73;;;15.60;69.10;;;;;;2347698;57;21119;-62
2022/11/09 08:45:55;;;;;;;3.80;1.60;;;15.60;69.20;;;;;;2347428;57;21509;-60
2022/11/09 08:48:23;;;;;;;4.60;1.73;;;15.60;69.20;;;;;;2347620;57;21128;-60
2022/11/09 08:50:53;;;;;;;3.35;1.85;;;15.60;69.20;;;;;;2347872;57;21520;-60
2022/11/09 08:53:20;;;;;;;5.93;1.83;;;15.70;69.30;;;;;;2347633;57;21552;-60
2022/11/09 08:55:48;;;;;;;2.62;1.60;;;15.70;70.00;;;;;;2347688;57;21677;-61
2022/11/09 08:58:15;;;;;;;7.25;1.77;;;15.80;69.10;;;;;;2347600;57;21053;-62
2022/11/09 09:00:43;;;;;;;2.35;1.40;;;15.80;68.90;;;;;;2347449;57;21615;-62
2022/11/09 09:03:10;;;;;;;4.65;1.77;;;15.80;68.80;;;;;;2347614;57;21058;-61
2022/11/09 09:05:38;;;;;;;3.60;1.65;;;15.80;68.60;;;;;;2347406;57;21050;-62
2022/11/09 09:08:06;;;;;;;4.82;2.33;;;15.90;68.70;;;;;;2347847;57;21794;-60
2022/11/09 09:10:34;;;;;;;4.22;2.10;;;15.90;68.60;;;;;;2347621;57;21053;-61
2022/11/09 09:13:02;;;;;;;6.25;1.90;;;15.90;68.40;;;;;;2347561;57;21069;-62
2022/11/09 09:15:30;;;;;;;3.03;1.70;;;15.90;68.40;;;;;;2347614;57;21105;-61
2022/11/09 09:17:59;;;;;;;7.70;1.90;;;15.90;68.40;;;;;;2347344;57;21049;-61
2022/11/09 09:20:26;;;;;;;7.00;1.95;;;15.90;68.20;;;;;;2347837;57;21604;-60
2022/11/09 09:22:56;;;;;;;4.60;2.10;;;15.90;68.10;;;;;;2347630;57;21057;-61
2022/11/09 09:25:23;;;;;;;3.65;1.80;;;15.90;68.10;;;;;;2347564;57;21572;-61
2022/11/09 09:27:50;;;;;;;6.53;2.05;;;15.80;68.00;;;;;;2347503;57;21041;-60
2022/11/09 09:30:18;;;;;;;7.85;2.10;;;15.90;67.70;;;;;;2347491;57;21062;-62
2022/11/09 09:32:45;;;;;;;5.45;2.03;;;15.90;67.80;;;;;;2347642;57;21690;-61
2022/11/09 09:35:13;;;;;;;7.50;2.15;;;15.90;67.70;;;;;;2347256;57;21122;-60
2022/11/09 09:37:40;;;;;;;6.95;2.72;;;15.90;67.70;;;;;;2347714;57;21049;-61
2022/11/09 09:40:16;;;;;;;5.45;1.77;;;16.00;67.50;;;;;;2346720;57;21128;-62
2022/11/09 09:42:43;;;;;;;5.93;1.70;;;16.00;67.30;;;;;;2346647;57;21496;-59
2022/11/09 09:45:16;;;;;;;4.37;1.75;;;16.00;66.80;;;;;;2346657;57;21057;-62
2022/11/09 09:47:50;;;;;;;6.95;2.03;;;16.10;66.70;;;;;;2346807;57;21133;-62
2022/11/09 09:50:24;;;;;;;10.07;1.80;;;16.00;66.80;;;;;;2346696;57;21029;-59
2022/11/09 09:52:56;;;;;;;4.90;1.90;;;16.10;66.70;;;;;;2346553;57;21170;-60
2022/11/09 09:55:31;;;;;;;3.43;1.80;;;16.10;66.50;;;;;;2347134;57;21048;-60
2022/11/09 09:58:05;;;;;;;7.70;2.33;;;16.20;66.70;;;;;;2346609;57;21540;-61
2022/11/09 10:00:34;;;;;;;5.87;1.98;;;16.20;66.40;;;;;;2346225;57;21081;-60
2022/11/09 10:03:02;;;;;;;6.18;1.90;;;16.30;66.30;;;;;;2346466;57;21038;-62
2022/11/09 10:05:41;;;;;;;8.85;1.80;;;16.30;66.30;;;;;;2346422;57;21339;-62
2022/11/09 10:08:14;;;;;;;6.95;1.65;;;16.40;66.10;;;;;;2346701;57;21563;-61
2022/11/09 10:10:47;;;;;;;5.57;1.53;;;16.40;66.10;;;;;;2346915;57;21634;-60
2022/11/09 10:13:55;;;;;;;3.37;1.48;;;16.50;65.60;;;;;;2347010;57;21981;-61
2022/11/09 10:16:27;;;;;;;6.93;2.03;;;16.50;64.60;;;;;;2346708;57;21106;-62
2022/11/09 10:19:21;;;;;;;3.80;1.70;;;16.50;64.60;;;;;;2346732;57;21045;-60
2022/11/09 10:21:54;;;;;;;6.40;2.03;;;16.50;64.80;;;;;;2346655;57;21606;-61
2022/11/09 10:24:34;;;;;;;8.65;1.70;;;16.60;64.90;;;;;;2346561;57;21025;-62
2022/11/09 10:27:08;;;;;;;8.43;1.83;;;16.60;65.30;;;;;;2346632;57;21500;-62
2022/11/09 10:29:41;;;;;;;3.45;1.92;;;16.70;65.20;;;;;;2346681;57;21508;-62
2022/11/09 10:32:14;;;;;;;4.15;1.45;;;16.70;65.30;;;;;;2346783;57;21545;-63
2022/11/09 10:34:48;;;;;;;4.03;1.62;;;16.80;65.20;;;;;;2346539;57;21081;-61
2022/11/09 10:37:21;;;;;;;3.65;1.50;;;16.80;64.40;;;;;;2346522;57;21520;-62
2022/11/09 10:39:51;;;;;;;6.40;1.80;;;16.80;64.00;;;;;;2346810;57;21595;-62
2022/11/09 10:42:18;;;;;;;11.50;2.47;;;16.80;63.10;;;;;;2346464;57;21034;-62
2022/11/09 10:44:46;;;;;;;5.62;2.33;;;16.80;63.00;;;;;;2346622;57;21473;-61
2022/11/09 10:47:15;;;;;;;6.87;1.80;;;16.80;62.90;;;;;;2346233;57;21548;-62
2022/11/09 10:49:43;;;;;;;4.22;1.60;;;16.80;62.90;;;;;;2346553;57;21025;-62
2022/11/09 10:55:35;;;;;;;5.68;1.90;;;16.80;62.60;;;;;;2346885;57;22055;-61
2022/11/09 10:58:19;;;;;;;6.53;1.67;;;16.80;62.90;;;;;;2348410;57;21646;-60
2022/11/09 11:00:59;;;;;;;3.70;1.58;;;16.80;63.00;;;;;;2348074;57;21587;-60
2022/11/09 11:03:27;;;;;;;3.92;1.50;;;16.80;63.10;;;;;;2348496;57;21046;-62
2022/11/09 11:05:58;;;;;;;4.70;1.75;;;16.80;62.90;;;;;;2348462;57;21524;-62
2022/11/09 11:08:29;;;;;;;6.55;2.17;;;16.80;62.50;;;;;;2348605;57;21053;-60
2022/11/09 11:11:17;;;;;;;5.82;1.87;;;16.80;62.70;;;;;;2348713;57;21612;-59
2022/11/09 11:13:47;;;;;;;9.02;1.83;;;16.80;62.30;;;;;;2348472;57;21038;-61
2022/11/09 11:16:22;;;;;;;5.95;1.70;;;16.90;62.40;;;;;;2348584;57;21152;-61
2022/11/09 11:18:49;;;;;;;11.80;2.33;;;16.90;62.50;;;;;;2348704;57;21089;-58
2022/11/09 11:21:19;;;;;;;6.25;1.62;;;16.90;62.00;;;;;;2348394;57;21179;-59
2022/11/09 11:24:10;;;;;;;8.13;2.15;;;17.00;61.60;;;;;;2348597;57;21053;-61
2022/11/09 11:26:45;;;;;;;4.30;1.70;;;17.00;61.50;;;;;;2348705;57;21599;-61
2022/11/09 11:29:42;;;;;;;4.15;1.50;;;17.00;61.10;;;;;;2348733;57;21094;-59
2022/11/09 11:32:13;;;;;;;6.53;1.55;;;17.00;61.20;;;;;;2348407;57;21586;-59
2022/11/09 11:34:41;;;;;;;9.88;1.98;;;17.00;60.50;;;;;;2348511;57;21069;-61
2022/11/09 11:37:27;;;;;;;6.20;2.05;;;17.00;60.60;;;;;;2348343;57;21126;-59
2022/11/09 11:40:01;;;;;;;4.53;2.00;;;16.90;60.50;;;;;;2348359;57;21069;-61
2022/11/09 11:43:11;;;;;;;13.57;2.83;;;17.00;60.30;;;;;;2348343;57;21053;-61
2022/11/09 11:45:42;;;;;;;5.80;2.08;;;17.00;60.20;;;;;;2348601;57;21057;-61
2022/11/09 11:51:35;;;;;;;8.17;2.10;;;17.00;60.50;;;;;;2337545;57;27758;-59
2022/11/09 11:54:13;;;;;;;4.43;1.73;;;16.90;60.20;;;;;;2348514;57;21160;-59
2022/11/09 11:56:46;;;;;;;8.20;2.12;;;17.00;60.50;;;;;;2375561;56;21585;-60
2022/11/09 11:59:40;;;;;;;6.60;1.80;;;17.00;60.30;;;;;;2376580;56;21585;-59
2022/11/09 12:02:43;;;;;;;4.65;1.60;;;17.10;60.60;;;;;;2376384;56;21581;-61
2022/11/09 12:05:30;;;;;;;6.20;1.33;;;17.10;60.80;;;;;;2376468;56;21605;-61
2022/11/09 12:08:04;;;;;;;8.05;1.90;;;17.20;60.60;;;;;;2376359;56;21676;-61
2022/11/09 12:10:45;;;;;;;6.35;2.03;;;17.20;60.00;;;;;;2376289;56;21525;-63
2022/11/09 12:13:25;;;;;;;5.72;1.65;;;17.30;59.90;;;;;;2376239;56;21568;-62
2022/11/09 12:16:01;;;;;;;7.12;1.80;;;17.30;60.40;;;;;;2376146;56;21517;-62
2022/11/09 12:18:39;;;;;;;7.05;2.03;;;17.30;60.00;;;;;;2376173;56;21664;-61
2022/11/09 12:21:15;;;;;;;6.12;1.77;;;17.30;60.00;;;;;;2376110;56;21522;-60
2022/11/09 12:24:03;;;;;;;5.65;2.10;;;17.40;59.90;;;;;;2375442;56;21114;-62
2022/11/09 12:26:44;;;;;;;4.03;1.45;;;17.40;59.50;;;;;;2376264;56;21105;-62
2022/11/09 12:29:19;;;;;;;8.27;1.75;;;17.40;59.40;;;;;;2375760;56;21095;-62
2022/11/09 12:32:01;;;;;;;8.52;1.90;;;17.40;58.90;;;;;;2379276;56;21047;-63
2022/11/09 12:34:33;;;;;;;13.05;2.05;;;17.40;59.10;;;;;;2379471;56;21054;-63
2022/11/09 12:37:04;;;;;;;6.47;1.63;;;17.50;59.50;;;;;;2379399;56;21114;-63
2022/11/09 12:39:38;;;;;;;4.68;1.85;;;17.50;59.20;;;;;;2379420;56;21067;-63
2022/11/09 12:42:14;;;;;;;9.57;2.08;;;17.50;59.30;;;;;;2378790;56;21031;-63
2022/11/09 12:44:58;;;;;;;8.40;2.20;;;17.50;58.90;;;;;;2379426;56;21043;-63
2022/11/09 12:47:28;;;;;;;;;;;17.50;58.80;;;;;;2382965;56;21039;-62
2022/11/09 12:49:56;;;;;;;6.30;2.08;;;17.60;58.90;;;;;;2379229;56;20062;-63
2022/11/09 12:52:27;;;;;;;8.43;1.58;;;17.50;58.60;;;;;;2379330;56;21585;-63
2022/11/09 12:54:56;;;;;;;5.15;1.35;;;17.50;58.70;;;;;;2379230;56;21102;-63
2022/11/09 12:57:28;;;;;;;4.53;1.58;;;17.50;58.70;;;;;;2378831;56;21066;-63
2022/11/09 12:59:56;;;;;;;3.08;1.60;;;17.50;58.60;;;;;;2379433;56;21019;-63
2022/11/09 13:02:33;;;;;;;4.62;1.90;;;17.40;58.90;;;;;;2378714;56;21031;-63
2022/11/09 13:05:02;;;;;;;7.75;2.58;;;17.40;58.20;;;;;;2378001;56;21050;-63
2022/11/09 13:07:50;;;;;;;5.62;1.70;;;17.40;58.60;;;;;;2378646;56;21066;-63
2022/11/09 13:10:30;;;;;;;4.43;1.80;;;17.40;58.70;;;;;;2378463;56;21038;-63
2022/11/09 13:13:21;;;;;;;4.18;1.27;;;17.40;58.40;;;;;;2377645;56;21074;-62
2022/11/09 13:16:08;;;;;;;4.25;1.60;;;17.40;58.40;;;;;;2378675;56;21067;-62
2022/11/09 13:18:51;;;;;;;8.60;1.65;;;17.40;58.70;;;;;;2378612;56;21555;-62
2022/11/09 13:21:38;;;;;;;4.17;1.50;;;17.40;58.60;;;;;;2378629;56;21055;-63
2022/11/09 13:24:58;;;;;;;5.37;1.77;;;17.30;57.80;;;;;;2378366;56;21715;-63